Terminal Aerodrome Forecast
Issued by NWS Tulsa, OK

Home | Current Version | Previous Version | Text Only | Print | Product List | Glossary On
Versions: 1 2 3 4 5 6 7 8 9 10 11 12 13 14 15 16 17 18
000
FTUS44 KTSA 031600 AAB
TAFFSM
TAF AMD
KFSM 031609Z 0316/0412 10006KT P6SM OVC004
      TEMPO 0316/0318 1/4SM -DZ FG VV002
     FM031800 24008KT P6SM OVC015
     FM040200 31008KT P6SM VCSH OVC012
     FM040600 35010KT 4SM -RA OVC008=

USA.gov is the U.S. government's official web portal to all federal, state and local government web resources and services.